Time;durP1;ratioP1;P1;durP2;ratioP2;P2;SDS_P1;SDS_P2;PMS_P1;PMS_P2;Temp;Humidity;BMP_temperature;BMP_pressure;BME280_temperature;BME280_humidity;BME280_pressure;Samples;Min_cycle;Max_cycle;Signal;HPM_P1;HPM_P2
2021/09/14 00:02:23;;;;;;;8.45;5.97;;;14.30;99.90;;;;;;6125861;23;20193;-69
2021/09/14 00:04:51;;;;;;;5.25;4.63;;;14.30;99.90;;;;;;6125318;23;20512;-69
2021/09/14 00:07:18;;;;;;;5.93;4.60;;;14.20;99.90;;;;;;6126931;23;20271;-68
2021/09/14 00:09:48;;;;;;;7.05;5.22;;;14.20;99.90;;;;;;6126814;23;20196;-68
2021/09/14 00:12:15;;;;;;;8.60;5.80;;;14.20;99.90;;;;;;6126730;23;20198;-69
2021/09/14 00:14:44;;;;;;;5.65;5.07;;;14.20;99.90;;;;;;6126211;23;20169;-69
2021/09/14 00:17:11;;;;;;;9.55;4.68;;;14.10;99.90;;;;;;6126854;23;20165;-69
2021/09/14 00:19:38;;;;;;;7.55;4.93;;;14.10;99.90;;;;;;6126140;23;20173;-69
2021/09/14 00:22:05;;;;;;;7.80;5.05;;;14.10;99.90;;;;;;6126431;23;20229;-69
2021/09/14 00:24:33;;;;;;;12.02;6.05;;;14.10;99.90;;;;;;6125618;23;20217;-69
2021/09/14 00:27:01;;;;;;;6.88;5.25;;;14.10;99.90;;;;;;6126235;23;20173;-69
2021/09/14 00:29:28;;;;;;;10.20;5.22;;;14.10;99.90;;;;;;6126156;23;20189;-69
2021/09/14 00:31:55;;;;;;;8.07;5.80;;;14.10;99.90;;;;;;6124928;23;20197;-69
2021/09/14 00:34:22;;;;;;;5.97;5.38;;;14.10;99.90;;;;;;6125915;23;20173;-69
2021/09/14 00:36:50;;;;;;;14.70;5.05;;;14.00;99.90;;;;;;6126012;23;20175;-69
2021/09/14 00:39:17;;;;;;;6.63;5.82;;;14.10;99.90;;;;;;6126410;23;20621;-68
2021/09/14 00:41:44;;;;;;;6.60;5.47;;;14.10;99.90;;;;;;6127327;23;20205;-69
2021/09/14 00:44:13;;;;;;;8.45;6.00;;;14.10;99.90;;;;;;6125659;23;20166;-69
2021/09/14 00:46:40;;;;;;;7.40;5.22;;;14.10;99.90;;;;;;6126613;23;20166;-68
2021/09/14 00:49:19;;;;;;;5.50;4.75;;;14.10;99.90;;;;;;6127071;23;20169;-69
2021/09/14 00:51:46;;;;;;;7.63;5.05;;;14.10;99.90;;;;;;6126756;23;20781;-69
2021/09/14 00:54:17;;;;;;;9.50;6.05;;;14.10;99.90;;;;;;6126217;23;20169;-68
2021/09/14 00:56:45;;;;;;;7.95;5.78;;;14.00;99.90;;;;;;6126266;23;20166;-69
2021/09/14 00:59:13;;;;;;;6.10;5.50;;;14.00;99.90;;;;;;6125743;23;20169;-69
2021/09/14 01:01:40;;;;;;;9.68;4.75;;;14.00;99.90;;;;;;6125791;23;20193;-70
2021/09/14 01:04:23;;;;;;;10.27;5.50;;;14.00;99.90;;;;;;6126288;23;20196;-70
2021/09/14 01:06:51;;;;;;;10.43;6.13;;;14.00;99.90;;;;;;6126395;23;20164;-70
2021/09/14 01:09:23;;;;;;;10.05;4.82;;;14.00;99.90;;;;;;6126235;23;20187;-69
2021/09/14 01:11:51;;;;;;;5.70;4.15;;;14.00;99.90;;;;;;6125778;23;20224;-69
2021/09/14 01:14:19;;;;;;;8.68;4.68;;;14.00;99.90;;;;;;6125269;23;20173;-68
2021/09/14 01:16:46;;;;;;;6.90;5.20;;;13.90;99.90;;;;;;6125851;23;20245;-69
2021/09/14 01:19:14;;;;;;;8.07;6.10;;;13.90;99.90;;;;;;6126111;23;20169;-69
2021/09/14 01:21:41;;;;;;;6.80;5.10;;;13.90;99.90;;;;;;6125406;23;20212;-69
2021/09/14 01:24:10;;;;;;;7.80;6.25;;;14.00;99.90;;;;;;6125739;23;20172;-68
2021/09/14 01:26:37;;;;;;;8.60;5.70;;;14.00;99.90;;;;;;6126055;23;20169;-69
2021/09/14 01:29:10;;;;;;;8.82;6.60;;;14.00;99.90;;;;;;6126041;23;20162;-68
2021/09/14 01:31:38;;;;;;;6.97;5.70;;;14.00;99.90;;;;;;6126202;23;20283;-69
2021/09/14 01:34:06;;;;;;;7.38;6.47;;;13.90;99.90;;;;;;6124893;23;20161;-69
2021/09/14 01:36:34;;;;;;;7.55;5.43;;;13.90;99.90;;;;;;6125773;23;20168;-68
2021/09/14 01:39:01;;;;;;;8.82;6.18;;;13.90;99.90;;;;;;6125521;23;20169;-69
2021/09/14 01:41:29;;;;;;;9.05;7.13;;;13.80;99.90;;;;;;6125547;23;20197;-69
2021/09/14 01:43:57;;;;;;;7.70;6.13;;;13.80;99.90;;;;;;6124576;23;20616;-69
2021/09/14 01:46:24;;;;;;;9.85;6.55;;;13.80;99.90;;;;;;6125785;23;20169;-69
2021/09/14 01:48:51;;;;;;;8.40;6.60;;;13.70;99.90;;;;;;6124853;23;20165;-69
2021/09/14 01:51:18;;;;;;;9.93;7.32;;;13.70;99.90;;;;;;6125657;23;20247;-69
2021/09/14 01:53:52;;;;;;;8.50;6.50;;;13.70;99.90;;;;;;6125391;23;20172;-69
2021/09/14 01:56:19;;;;;;;10.35;6.47;;;13.70;99.90;;;;;;6099268;23;20184;-69
2021/09/14 01:58:52;;;;;;;8.05;7.13;;;13.70;99.90;;;;;;6125578;23;20694;-69
2021/09/14 02:01:24;;;;;;;7.47;5.95;;;13.70;99.90;;;;;;6125227;23;20200;-69
2021/09/14 02:03:57;;;;;;;9.82;7.15;;;13.60;99.90;;;;;;6124584;23;20165;-68
2021/09/14 02:42:36;;;;;;;9.23;7.35;;;13.30;99.90;;;;;;6125223;23;20654;-69
2021/09/14 02:56:30;;;;;;;10.60;7.78;;;13.20;99.90;;;;;;6127388;23;20165;-69
2021/09/14 02:58:56;;;;;;;12.45;7.03;;;13.30;99.90;;;;;;6126698;23;20220;-69
2021/09/14 03:01:24;;;;;;;11.13;7.28;;;13.30;99.90;;;;;;6127373;23;20207;-69
2021/09/14 03:03:54;;;;;;;7.47;6.22;;;13.30;99.90;;;;;;6126475;23;20248;-69
2021/09/14 03:06:21;;;;;;;9.00;7.10;;;13.20;99.90;;;;;;6127189;23;20177;-69
2021/09/14 03:08:49;;;;;;;11.25;7.03;;;13.30;99.90;;;;;;6127293;23;20165;-69
2021/09/14 03:11:19;;;;;;;7.70;6.72;;;13.20;99.90;;;;;;6127045;23;20210;-69
2021/09/14 03:13:46;;;;;;;12.23;7.75;;;13.20;99.90;;;;;;6127082;23;20173;-70
2021/09/14 03:16:16;;;;;;;11.23;7.22;;;13.20;99.90;;;;;;6126132;23;20498;-69
2021/09/14 03:18:44;;;;;;;9.90;7.93;;;13.20;99.90;;;;;;6127087;23;20173;-69
2021/09/14 03:21:14;;;;;;;9.82;7.97;;;13.20;99.90;;;;;;6126869;23;20507;-69
2021/09/14 03:23:41;;;;;;;10.32;9.20;;;13.20;99.90;;;;;;6128246;23;20549;-69
2021/09/14 03:26:08;;;;;;;9.45;8.20;;;13.20;99.90;;;;;;6126656;23;20187;-69
2021/09/14 03:28:38;;;;;;;12.55;8.20;;;13.20;99.90;;;;;;6126690;23;20201;-69
2021/09/14 03:31:05;;;;;;;13.77;7.78;;;13.20;99.90;;;;;;6126977;23;20227;-69
2021/09/14 03:33:33;;;;;;;10.20;7.85;;;13.20;99.90;;;;;;6126311;23;20172;-69
2021/09/14 03:36:00;;;;;;;13.43;9.68;;;13.20;99.90;;;;;;6126656;23;20539;-69
2021/09/14 03:38:28;;;;;;;10.18;7.72;;;13.20;99.90;;;;;;6126447;23;20165;-69
2021/09/14 03:40:55;;;;;;;11.88;8.68;;;13.10;99.90;;;;;;6127064;23;20161;-68
2021/09/14 03:43:23;;;;;;;8.63;7.53;;;13.10;99.90;;;;;;6126557;23;20254;-69
2021/09/14 03:45:50;;;;;;;10.00;7.57;;;13.10;99.90;;;;;;6125681;23;20243;-68
2021/09/14 03:48:18;;;;;;;13.00;9.80;;;13.10;99.90;;;;;;6127174;23;20164;-70
2021/09/14 03:50:47;;;;;;;9.75;7.25;;;13.00;99.90;;;;;;6125811;23;20199;-69
2021/09/14 03:53:14;;;;;;;13.60;8.07;;;13.00;99.90;;;;;;6127074;23;20283;-69
2021/09/14 03:55:43;;;;;;;12.75;8.48;;;13.00;99.90;;;;;;6125805;23;20172;-70
2021/09/14 03:58:10;;;;;;;9.55;7.72;;;13.00;99.90;;;;;;6126555;23;20220;-69
2021/09/14 04:00:37;;;;;;;10.98;7.60;;;13.00;99.90;;;;;;6125951;23;20598;-69
2021/09/14 04:03:07;;;;;;;13.18;9.05;;;13.00;99.90;;;;;;6127053;23;20205;-69
2021/09/14 04:05:47;;;;;;;12.73;9.35;;;13.00;99.90;;;;;;6126032;23;20493;-69
2021/09/14 04:11:01;;;;;;;10.68;8.40;;;13.00;99.90;;;;;;6126431;23;20243;-69
2021/09/14 04:13:28;;;;;;;9.85;8.85;;;12.90;99.90;;;;;;6126979;23;20177;-69
2021/09/14 04:15:56;;;;;;;12.70;9.13;;;12.90;99.90;;;;;;6126314;23;20180;-69
2021/09/14 04:18:23;;;;;;;9.00;8.10;;;12.90;99.90;;;;;;6127122;23;20164;-69
2021/09/14 04:20:50;;;;;;;15.05;9.20;;;12.90;99.90;;;;;;6126119;23;20188;-69
2021/09/14 04:23:17;;;;;;;11.82;8.10;;;12.80;99.90;;;;;;6126440;23;20195;-69
2021/09/14 04:25:44;;;;;;;10.68;8.57;;;12.80;99.90;;;;;;6126006;23;20601;-69
2021/09/14 04:28:13;;;;;;;10.88;9.77;;;12.80;99.90;;;;;;6125754;23;20255;-69
2021/09/14 04:30:40;;;;;;;15.38;8.73;;;12.80;99.90;;;;;;6126279;23;20189;-71
2021/09/14 04:33:08;;;;;;;10.80;7.72;;;12.90;99.90;;;;;;6125893;23;20681;-69
2021/09/14 04:35:36;;;;;;;12.80;8.77;;;12.80;99.90;;;;;;6125472;23;20262;-69
2021/09/14 04:38:03;;;;;;;10.02;8.93;;;12.90;99.90;;;;;;6125288;23;20598;-69
2021/09/14 04:40:31;;;;;;;13.45;10.40;;;12.80;99.90;;;;;;6125788;23;20164;-69
2021/09/14 04:42:58;;;;;;;12.00;7.57;;;12.80;99.90;;;;;;6125867;23;20537;-69
2021/09/14 04:45:27;;;;;;;14.18;8.77;;;12.80;99.90;;;;;;6125610;23;20227;-68
2021/09/14 04:47:54;;;;;;;9.80;8.80;;;12.80;99.90;;;;;;6125902;23;20174;-69
2021/09/14 04:50:24;;;;;;;12.73;8.70;;;12.80;99.90;;;;;;6126218;23;20638;-69
2021/09/14 04:52:51;;;;;;;14.88;10.13;;;12.80;99.90;;;;;;6125707;23;20214;-69
2021/09/14 04:55:18;;;;;;;9.48;8.27;;;12.80;99.90;;;;;;6125029;23;20174;-68
2021/09/14 04:57:45;;;;;;;13.98;10.27;;;12.80;99.90;;;;;;6125781;23;20171;-68
2021/09/14 05:00:15;;;;;;;17.77;9.45;;;12.80;99.90;;;;;;6125994;23;20175;-69
2021/09/14 05:02:43;;;;;;;11.30;7.88;;;12.80;99.90;;;;;;6124746;23;20226;-69
2021/09/14 05:05:11;;;;;;;13.10;8.93;;;12.80;99.90;;;;;;6124665;23;20652;-69
2021/09/14 05:07:39;;;;;;;10.60;8.55;;;12.80;99.90;;;;;;6125572;23;20243;-69
2021/09/14 05:10:07;;;;;;;12.90;7.70;;;12.80;99.90;;;;;;6125997;23;20599;-68
2021/09/14 05:12:34;;;;;;;11.18;9.43;;;12.90;99.90;;;;;;6125397;23;20206;-69
2021/09/14 05:15:04;;;;;;;12.55;9.43;;;13.00;99.90;;;;;;6125075;23;20172;-69
2021/09/14 05:17:31;;;;;;;11.73;8.68;;;12.90;99.90;;;;;;6125069;23;20168;-69
2021/09/14 05:20:00;;;;;;;10.85;7.75;;;12.90;99.90;;;;;;6124951;23;20188;-70
2021/09/14 05:22:32;;;;;;;10.20;8.10;;;13.00;99.90;;;;;;6125093;23;20199;-69
2021/09/14 05:24:59;;;;;;;10.60;8.60;;;13.00;99.90;;;;;;6125198;23;20595;-70
2021/09/14 05:27:26;;;;;;;11.75;9.95;;;13.00;99.90;;;;;;6125580;23;20199;-70
2021/09/14 05:29:54;;;;;;;12.35;8.70;;;13.00;99.90;;;;;;6125321;23;20165;-68
2021/09/14 05:32:21;;;;;;;11.75;10.13;;;13.10;99.90;;;;;;6124846;23;20220;-68
2021/09/14 05:34:50;;;;;;;8.30;7.50;;;13.10;99.90;;;;;;6123941;23;20173;-68
2021/09/14 05:37:20;;;;;;;14.00;8.80;;;13.10;99.90;;;;;;6125002;23;20163;-67
2021/09/14 05:39:47;;;;;;;9.70;7.60;;;13.20;99.90;;;;;;6124757;23;20173;-68
2021/09/14 05:42:14;;;;;;;9.73;7.78;;;13.20;99.90;;;;;;6124651;23;20545;-68
2021/09/14 05:44:41;;;;;;;12.90;9.18;;;13.20;99.90;;;;;;6124268;23;20477;-68
2021/09/14 05:47:09;;;;;;;15.55;8.43;;;13.30;99.90;;;;;;6125267;23;20557;-68
2021/09/14 05:49:36;;;;;;;10.07;8.05;;;13.30;99.90;;;;;;6125443;23;20170;-68
2021/09/14 05:52:04;;;;;;;10.88;7.00;;;13.40;99.90;;;;;;6124891;23;20316;-68
2021/09/14 05:54:32;;;;;;;9.90;7.15;;;13.50;99.90;;;;;;6124129;23;20215;-68
2021/09/14 05:57:02;;;;;;;9.32;7.10;;;13.60;99.90;;;;;;6125587;23;20229;-68
2021/09/14 05:59:30;;;;;;;8.73;6.07;;;13.70;99.90;;;;;;6125155;23;20208;-68
2021/09/14 06:01:57;;;;;;;9.65;6.75;;;13.90;99.90;;;;;;6124535;23;20235;-68
2021/09/14 06:04:24;;;;;;;8.77;6.55;;;14.10;99.90;;;;;;6124940;23;20205;-68
2021/09/14 06:06:51;;;;;;;8.98;5.63;;;14.70;99.90;;;;;;6125368;23;20189;-70
2021/09/14 06:09:19;;;;;;;8.38;5.47;;;15.60;99.90;;;;;;6125011;23;20162;-68
2021/09/14 06:11:47;;;;;;;5.97;5.35;;;16.40;99.90;;;;;;6124398;23;20203;-67
2021/09/14 06:14:14;;;;;;;6.57;5.63;;;17.20;99.90;;;;;;6123834;23;20257;-67
2021/09/14 06:16:42;;;;;;;8.30;6.83;;;18.10;99.90;;;;;;6125209;23;20407;-68
2021/09/14 06:19:09;;;;;;;7.47;4.87;;;19.00;99.90;;;;;;6124720;23;20394;-68
2021/09/14 06:21:38;;;;;;;4.53;4.13;;;19.80;99.90;;;;;;6124539;23;20433;-68
2021/09/14 06:24:06;;;;;;;5.57;4.50;;;20.40;99.90;;;;;;6124825;23;20398;-68
2021/09/14 06:26:34;;;;;;;6.70;6.07;;;21.00;99.90;;;;;;6124445;23;20391;-69
2021/09/14 06:29:03;;;;;;;6.77;5.20;;;21.30;99.90;;;;;;6124015;23;20488;-69
2021/09/14 06:31:30;;;;;;;7.27;5.33;;;21.80;99.90;;;;;;6124038;23;20521;-68
2021/09/14 06:33:57;;;;;;;9.00;4.77;;;22.30;99.90;;;;;;6125586;23;20421;-68
2021/09/14 06:36:24;;;;;;;5.60;4.77;;;22.70;99.80;;;;;;6124210;23;20390;-67
2021/09/14 06:38:51;;;;;;;4.60;4.20;;;23.20;98.40;;;;;;6124998;23;20393;-67
2021/09/14 06:41:19;;;;;;;9.23;4.73;;;23.30;97.60;;;;;;6124276;23;20430;-68
2021/09/14 06:43:46;;;;;;;8.70;5.47;;;23.60;97.30;;;;;;6124498;23;20477;-68
2021/09/14 06:46:15;;;;;;;6.10;5.47;;;24.10;96.20;;;;;;6124388;23;20408;-68
2021/09/14 06:48:42;;;;;;;9.83;4.90;;;24.70;94.90;;;;;;6124578;23;20486;-69
2021/09/14 06:51:09;;;;;;;8.30;4.77;;;24.90;94.50;;;;;;6124389;23;20443;-68
2021/09/14 06:53:36;;;;;;;4.70;4.30;;;25.30;93.50;;;;;;6124671;23;20416;-68
2021/09/14 06:56:04;;;;;;;6.23;4.97;;;26.00;92.40;;;;;;6124646;23;20486;-68
2021/09/14 06:58:31;;;;;;;5.13;4.30;;;26.00;92.20;;;;;;6124548;23;20406;-68
2021/09/14 07:01:32;;;;;;;4.77;4.27;;;26.20;91.40;;;;;;6124505;23;20408;-68
2021/09/14 07:03:59;;;;;;;5.37;4.67;;;26.60;90.90;;;;;;6125323;23;20393;-69
2021/09/14 07:06:26;;;;;;;9.27;5.00;;;26.60;90.70;;;;;;6124796;23;20393;-69
2021/09/14 07:09:06;;;;;;;7.53;4.87;;;27.10;90.00;;;;;;6125340;23;20398;-69
2021/09/14 07:11:34;;;;;;;7.73;4.30;;;27.20;89.50;;;;;;6125577;23;20444;-68
2021/09/14 07:14:03;;;;;;;6.20;3.90;;;27.60;88.40;;;;;;6125478;23;20390;-68
2021/09/14 07:16:32;;;;;;;5.40;4.13;;;28.30;85.70;;;;;;6125119;23;20401;-68
2021/09/14 07:18:59;;;;;;;5.87;4.47;;;28.40;84.70;;;;;;6125836;23;20386;-67
2021/09/14 07:21:26;;;;;;;4.70;4.10;;;28.10;85.40;;;;;;6125426;23;20437;-68
2021/09/14 07:23:54;;;;;;;9.90;4.53;;;28.40;85.20;;;;;;6125778;23;20393;-68
2021/09/14 07:26:21;;;;;;;5.90;4.67;;;28.10;85.30;;;;;;6125526;23;20393;-69
2021/09/14 07:28:48;;;;;;;5.87;3.87;;;28.50;84.60;;;;;;6125185;23;20401;-68
2021/09/14 07:31:16;;;;;;;5.03;4.53;;;29.10;83.40;;;;;;6124566;23;20453;-69
2021/09/14 07:33:44;;;;;;;5.80;4.60;;;29.40;82.20;;;;;;6124775;23;20390;-69
2021/09/14 07:36:12;;;;;;;6.60;4.27;;;29.90;80.80;;;;;;6124046;23;20398;-68
2021/09/14 07:38:42;;;;;;;11.23;4.70;;;30.10;79.70;;;;;;6125134;23;20764;-68
2021/09/14 07:41:10;;;;;;;5.23;4.73;;;30.30;78.90;;;;;;6126341;23;20456;-69
2021/09/14 07:43:37;;;;;;;6.67;4.97;;;30.50;78.20;;;;;;6126625;23;20476;-69
2021/09/14 07:46:08;;;;;;;5.57;4.40;;;30.40;77.70;;;;;;6126115;23;20821;-69
2021/09/14 07:48:36;;;;;;;5.37;4.37;;;30.20;78.40;;;;;;6126126;23;20810;-69
2021/09/14 07:51:05;;;;;;;6.00;5.40;;;30.40;78.20;;;;;;6125755;23;20397;-69
2021/09/14 07:53:34;;;;;;;7.63;4.73;;;31.10;76.60;;;;;;6127033;23;20394;-68
2021/09/14 07:56:01;;;;;;;7.73;5.00;;;31.50;75.50;;;;;;6125892;23;20936;-69
2021/09/14 07:58:29;;;;;;;6.03;5.10;;;31.30;74.10;;;;;;6125987;23;20394;-69
2021/09/14 08:00:56;;;;;;;6.47;5.33;;;30.60;75.70;;;;;;6125742;23;20975;-68
2021/09/14 08:03:24;;;;;;;6.47;4.00;;;31.20;75.50;;;;;;6126407;23;20396;-69
2021/09/14 08:05:51;;;;;;;6.83;4.30;;;31.70;75.10;;;;;;6125880;23;20429;-69
2021/09/14 08:08:20;;;;;;;7.17;4.97;;;31.90;74.10;;;;;;6126457;23;20404;-69
2021/09/14 08:10:47;;;;;;;10.20;6.07;;;31.90;74.00;;;;;;6125258;23;20826;-70
2021/09/14 08:13:24;;;;;;;6.80;5.10;;;32.00;73.20;;;;;;6126456;23;20983;-69
2021/09/14 08:15:51;;;;;;;5.60;4.60;;;32.10;72.90;;;;;;6099562;23;20409;-70
2021/09/14 08:18:18;;;;;;;7.20;4.97;;;32.50;72.40;;;;;;6126185;23;20425;-68
2021/09/14 08:20:45;;;;;;;8.33;5.43;;;32.00;72.60;;;;;;6125518;23;20421;-69
2021/09/14 08:23:12;;;;;;;5.70;5.13;;;32.40;72.60;;;;;;6125423;23;20429;-69
2021/09/14 08:25:41;;;;;;;5.37;4.90;;;32.90;71.40;;;;;;6125873;23;20398;-69
2021/09/14 08:28:09;;;;;;;6.40;5.67;;;33.30;70.50;;;;;;6125291;23;20453;-68
2021/09/14 08:30:36;;;;;;;6.97;6.20;;;32.70;70.30;;;;;;6125791;23;20393;-69
2021/09/14 08:33:03;;;;;;;6.10;5.37;;;32.40;71.10;;;;;;6125290;23;20480;-69
2021/09/14 08:35:30;;;;;;;6.67;6.00;;;32.80;70.90;;;;;;6124946;23;20401;-70
2021/09/14 08:37:58;;;;;;;7.00;5.50;;;33.50;69.00;;;;;;6125409;23;20408;-70
2021/09/14 08:40:25;;;;;;;8.10;6.53;;;33.50;68.90;;;;;;6125539;23;20421;-69
2021/09/14 08:42:55;;;;;;;5.30;4.80;;;33.00;68.90;;;;;;6125713;23;20430;-70
2021/09/14 08:45:23;;;;;;;7.20;5.60;;;33.10;69.20;;;;;;6124547;23;20722;-69
2021/09/14 08:47:50;;;;;;;7.17;6.30;;;33.40;69.20;;;;;;6125794;23;20412;-68
2021/09/14 08:50:22;;;;;;;6.93;5.63;;;33.70;68.00;;;;;;6125105;23;20398;-68
2021/09/14 08:52:49;;;;;;;10.83;5.53;;;33.30;68.30;;;;;;6125027;23;20829;-68
2021/09/14 08:55:17;;;;;;;8.37;5.67;;;33.50;68.00;;;;;;6124883;23;20409;-69
2021/09/14 08:57:50;;;;;;;8.33;6.27;;;33.40;68.40;;;;;;6125500;23;20409;-69
2021/09/14 09:00:29;;;;;;;5.80;4.87;;;33.30;68.70;;;;;;6125099;23;20420;-69
2021/09/14 09:02:56;;;;;;;12.27;6.93;;;33.10;68.40;;;;;;6125462;23;20976;-69
2021/09/14 09:05:31;;;;;;;6.33;5.40;;;33.10;68.30;;;;;;6125150;23;20394;-70
2021/09/14 09:07:58;;;;;;;5.73;5.23;;;33.10;68.60;;;;;;6125772;23;20452;-69
2021/09/14 09:10:26;;;;;;;6.23;5.63;;;32.90;69.50;;;;;;6125712;23;20431;-69
2021/09/14 09:12:53;;;;;;;7.23;5.50;;;33.20;68.70;;;;;;6124593;23;20956;-68
2021/09/14 09:15:28;;;;;;;6.33;4.90;;;33.10;68.20;;;;;;6124953;23;20899;-68
2021/09/14 09:18:04;;;;;;;6.43;5.73;;;33.70;68.00;;;;;;6125056;23;20503;-69
2021/09/14 09:20:32;;;;;;;7.40;5.43;;;33.70;67.80;;;;;;6125478;23;20476;-69
2021/09/14 09:23:02;;;;;;;9.73;5.50;;;33.60;67.00;;;;;;6125080;23;20425;-70
2021/09/14 09:25:29;;;;;;;8.80;5.50;;;34.00;66.90;;;;;;6124825;23;20393;-68
2021/09/14 09:28:11;;;;;;;6.37;5.77;;;34.10;66.60;;;;;;6124638;23;20394;-70
2021/09/14 09:30:41;;;;;;;7.07;4.63;;;33.40;65.90;;;;;;6125921;23;20394;-68
2021/09/14 09:33:11;;;;;;;6.07;4.30;;;33.30;68.50;;;;;;6125680;23;20885;-69
2021/09/14 09:35:40;;;;;;;6.90;6.20;;;32.80;68.30;;;;;;6125891;23;20394;-69
2021/09/14 09:38:08;;;;;;;9.90;5.80;;;33.00;67.90;;;;;;6125694;23;20398;-69
2021/09/14 09:40:37;;;;;;;5.60;4.80;;;32.60;68.30;;;;;;6124382;23;20409;-69
2021/09/14 09:43:07;;;;;;;6.30;5.00;;;32.90;68.20;;;;;;6125188;23;21117;-69
2021/09/14 09:45:42;;;;;;;7.13;5.30;;;32.70;68.40;;;;;;6124799;23;20449;-69
2021/09/14 09:48:10;;;;;;;6.90;5.23;;;31.80;69.00;;;;;;6125380;23;20427;-70
2021/09/14 09:50:38;;;;;;;9.57;4.53;;;30.90;72.60;;;;;;6124631;23;20437;-69
2021/09/14 09:53:06;;;;;;;7.03;5.20;;;30.60;74.10;;;;;;6124879;23;20932;-70
2021/09/14 09:55:34;;;;;;;5.00;4.57;;;30.80;74.20;;;;;;6124705;23;20393;-69
2021/09/14 09:58:04;;;;;;;11.67;10.20;;;31.40;72.50;;;;;;6125139;23;20453;-69
2021/09/14 10:00:34;;;;;;;7.70;6.43;;;31.00;71.50;;;;;;6124537;23;20460;-69
2021/09/14 10:03:06;;;;;;;8.17;6.10;;;29.70;75.70;;;;;;6124840;23;20437;-69
2021/09/14 10:05:35;;;;;;;7.57;4.60;;;29.80;76.40;;;;;;6123858;23;20915;-71
2021/09/14 10:08:06;;;;;;;6.97;5.73;;;29.50;78.60;;;;;;6125278;23;20398;-67
2021/09/14 10:10:34;;;;;;;5.97;5.47;;;29.90;76.50;;;;;;6124583;23;20710;-68
2021/09/14 10:13:04;;;;;;;7.30;5.60;;;29.40;76.50;;;;;;6125125;23;20503;-69
2021/09/14 10:15:39;;;;;;;5.77;4.53;;;29.70;76.50;;;;;;6124044;23;20394;-69
2021/09/14 10:18:09;;;;;;;6.07;5.37;;;30.40;74.90;;;;;;6124987;23;20394;-69
2021/09/14 10:20:40;;;;;;;5.80;5.30;;;30.20;75.10;;;;;;6118365;23;20425;-69
2021/09/14 10:23:15;;;;;;;7.73;6.40;;;30.20;74.60;;;;;;6095732;23;20426;-68
2021/09/14 10:25:45;;;;;;;7.10;5.67;;;30.30;74.70;;;;;;6069386;23;20727;-69
2021/09/14 10:28:14;;;;;;;10.03;5.10;;;30.30;74.60;;;;;;6095593;23;20403;-69
2021/09/14 10:30:42;;;;;;;6.80;4.97;;;30.40;74.20;;;;;;6095547;23;20729;-69
2021/09/14 10:33:20;;;;;;;7.13;6.43;;;30.00;73.40;;;;;;6094983;23;20450;-69
2021/09/14 10:35:48;;;;;;;6.10;5.30;;;28.90;75.80;;;;;;6070430;23;20417;-70
2021/09/14 10:38:16;;;;;;;7.10;5.30;;;28.00;79.00;;;;;;6095178;23;20402;-70
2021/09/14 10:40:46;;;;;;;6.90;6.20;;;27.60;80.50;;;;;;6094842;23;20395;-70
2021/09/14 10:43:30;;;;;;;6.20;5.57;;;27.00;81.90;;;;;;6095120;23;20501;-68
2021/09/14 10:45:59;;;;;;;7.20;6.30;;;26.90;84.00;;;;;;6094717;23;20395;-70
2021/09/14 10:48:29;;;;;;;6.40;5.17;;;26.80;84.40;;;;;;6095093;23;20410;-69
2021/09/14 10:51:09;;;;;;;8.80;5.10;;;26.60;85.20;;;;;;6095739;23;20405;-69
2021/09/14 10:53:36;;;;;;;6.83;6.13;;;26.40;85.70;;;;;;6095237;23;20464;-69
2021/09/14 10:56:04;;;;;;;6.13;5.53;;;26.20;86.10;;;;;;6094905;23;20401;-69
2021/09/14 10:58:41;;;;;;;6.93;6.27;;;26.30;87.10;;;;;;6094544;23;20424;-69
2021/09/14 11:01:08;;;;;;;5.87;5.30;;;26.30;87.30;;;;;;6095179;23;20468;-69
2021/09/14 11:03:36;;;;;;;10.70;6.80;;;26.40;88.70;;;;;;6094378;23;20393;-68
2021/09/14 11:06:05;;;;;;;7.80;6.20;;;26.40;88.10;;;;;;6095384;23;20498;-68
2021/09/14 11:08:32;;;;;;;9.00;6.27;;;26.30;87.90;;;;;;6095173;23;20488;-69
2021/09/14 11:11:02;;;;;;;7.37;6.70;;;26.10;87.70;;;;;;6093766;23;20896;-69
2021/09/14 11:13:31;;;;;;;6.83;5.50;;;26.10;88.00;;;;;;6095284;23;20804;-69
2021/09/14 11:16:04;;;;;;;8.07;7.03;;;25.90;89.40;;;;;;6096348;23;20394;-68
2021/09/14 11:18:32;;;;;;;8.03;5.97;;;25.80;89.20;;;;;;6097161;23;20505;-70
2021/09/14 11:21:06;;;;;;;6.20;5.13;;;26.00;89.50;;;;;;6107420;23;20455;-69
2021/09/14 11:23:34;;;;;;;7.23;6.50;;;26.00;88.90;;;;;;6126632;23;20394;-68
2021/09/14 11:26:02;;;;;;;7.53;6.73;;;26.00;89.30;;;;;;6125723;23;20394;-69
2021/09/14 11:28:30;;;;;;;8.47;6.00;;;25.70;89.50;;;;;;6126422;23;20416;-69
2021/09/14 11:30:59;;;;;;;7.73;6.47;;;25.60;90.40;;;;;;6125935;23;20744;-69
2021/09/14 11:33:28;;;;;;;7.97;6.37;;;25.30;90.30;;;;;;6125899;23;20433;-69
2021/09/14 11:35:57;;;;;;;8.13;6.23;;;25.20;90.70;;;;;;6125286;23;20857;-69
2021/09/14 11:38:26;;;;;;;7.57;6.80;;;25.20;91.10;;;;;;6125890;23;20414;-70
2021/09/14 11:40:57;;;;;;;9.73;6.80;;;25.20;91.30;;;;;;6126130;23;20416;-69
2021/09/14 11:43:26;;;;;;;6.83;5.47;;;25.30;91.40;;;;;;6126213;23;20389;-69
2021/09/14 11:45:55;;;;;;;9.93;8.90;;;25.30;91.50;;;;;;6126325;23;20743;-69
2021/09/14 11:48:24;;;;;;;8.90;7.33;;;25.20;91.10;;;;;;6126752;23;20394;-69
2021/09/14 11:51:03;;;;;;;8.30;7.53;;;25.10;91.20;;;;;;6125485;23;20424;-69
2021/09/14 11:53:32;;;;;;;7.03;6.40;;;25.00;91.90;;;;;;6126522;23;20777;-69
2021/09/14 11:56:00;;;;;;;7.83;7.17;;;24.90;92.30;;;;;;6125374;23;20402;-70
2021/09/14 11:58:32;;;;;;;8.80;7.70;;;24.90;91.90;;;;;;6125021;23;20880;-69
2021/09/14 12:01:02;;;;;;;6.37;5.73;;;24.80;91.90;;;;;;6126135;23;20431;-69
2021/09/14 12:03:40;;;;;;;10.47;6.70;;;24.90;92.50;;;;;;6126015;23;20398;-69
2021/09/14 12:06:08;;;;;;;6.87;6.13;;;24.90;92.60;;;;;;6125139;23;20397;-71
2021/09/14 12:08:40;;;;;;;8.80;8.00;;;24.90;91.90;;;;;;6126092;23;20398;-68
2021/09/14 12:11:08;;;;;;;7.30;6.67;;;24.70;91.80;;;;;;6125516;23;20727;-70
2021/09/14 12:13:38;;;;;;;14.23;7.30;;;24.50;92.10;;;;;;6125581;23;20429;-69
2021/09/14 12:16:09;;;;;;;7.33;6.63;;;24.60;92.40;;;;;;6124616;23;20409;-69
2021/09/14 12:18:37;;;;;;;7.13;6.40;;;24.60;92.30;;;;;;6125748;23;20482;-68
2021/09/14 12:21:04;;;;;;;8.20;7.37;;;24.60;92.80;;;;;;6125934;23;20429;-68
2021/09/14 12:23:32;;;;;;;7.87;7.17;;;24.50;92.80;;;;;;6125691;23;20401;-69
2021/09/14 12:26:02;;;;;;;6.90;6.30;;;24.40;92.90;;;;;;6125320;23;20776;-69
2021/09/14 12:28:29;;;;;;;7.30;6.20;;;24.40;93.10;;;;;;6125469;23;20394;-70
2021/09/14 12:30:56;;;;;;;7.73;7.03;;;24.40;93.00;;;;;;6125109;23;20394;-67
2021/09/14 12:33:24;;;;;;;7.07;6.43;;;24.40;92.70;;;;;;6125453;23;20464;-70
2021/09/14 12:35:51;;;;;;;8.10;7.10;;;24.20;93.00;;;;;;6125442;23;20489;-69
2021/09/14 12:38:19;;;;;;;6.97;6.27;;;24.30;93.30;;;;;;6125729;23;20394;-70
2021/09/14 12:40:46;;;;;;;7.87;6.00;;;24.40;93.40;;;;;;6125576;23;20460;-69
2021/09/14 12:43:15;;;;;;;7.17;6.10;;;24.40;93.50;;;;;;6125565;23;20435;-68
2021/09/14 12:45:42;;;;;;;6.20;5.50;;;24.50;93.20;;;;;;6124133;23;20401;-70
2021/09/14 12:48:11;;;;;;;7.10;6.50;;;24.60;93.10;;;;;;6125394;23;20389;-69
2021/09/14 12:50:38;;;;;;;6.97;5.70;;;24.80;92.90;;;;;;6125644;23;20424;-68
2021/09/14 12:53:05;;;;;;;6.97;6.13;;;24.80;92.90;;;;;;6125261;23;20453;-69
2021/09/14 12:55:35;;;;;;;10.00;7.83;;;24.80;92.50;;;;;;6124499;23;20394;-69
2021/09/14 12:58:05;;;;;;;7.10;6.50;;;24.60;92.70;;;;;;6125222;23;20474;-68
2021/09/14 13:00:35;;;;;;;6.80;6.10;;;24.60;93.10;;;;;;6124895;23;20481;-69
2021/09/14 13:03:04;;;;;;;6.30;5.70;;;24.40;93.70;;;;;;6125700;23;20425;-69
2021/09/14 13:05:32;;;;;;;6.73;6.10;;;24.40;93.70;;;;;;6125016;23;20420;-67
2021/09/14 13:08:00;;;;;;;7.13;6.40;;;24.10;94.20;;;;;;6126310;23;20394;-68
2021/09/14 13:10:27;;;;;;;7.23;6.57;;;23.90;94.60;;;;;;6124962;23;20859;-70
2021/09/14 13:18:22;;;;;;;7.77;6.70;;;24.00;94.70;;;;;;6125486;23;20449;-70
2021/09/14 13:20:49;;;;;;;6.80;6.20;;;23.90;94.60;;;;;;6124204;23;20413;-69
2021/09/14 13:23:16;;;;;;;7.80;6.57;;;23.90;95.10;;;;;;6124435;23;20436;-69
2021/09/14 13:25:43;;;;;;;7.47;6.70;;;23.90;95.10;;;;;;6124143;23;20394;-69
2021/09/14 13:28:10;;;;;;;6.70;6.00;;;23.90;95.10;;;;;;6124270;23;20393;-69
2021/09/14 13:30:39;;;;;;;6.70;6.10;;;23.90;95.10;;;;;;6124815;23;20396;-69
2021/09/14 13:33:06;;;;;;;6.40;5.40;;;24.00;95.20;;;;;;6124661;23;20436;-68
2021/09/14 13:35:34;;;;;;;7.70;6.90;;;24.10;95.00;;;;;;6124165;23;20396;-69
2021/09/14 13:38:02;;;;;;;8.30;6.37;;;24.20;94.80;;;;;;6124748;23;20402;-70
2021/09/14 13:40:29;;;;;;;8.80;6.70;;;24.20;94.90;;;;;;6124698;23;20747;-70
2021/09/14 13:42:57;;;;;;;6.43;5.60;;;24.20;94.70;;;;;;6124797;23;20546;-69
2021/09/14 13:48:10;;;;;;;6.37;5.40;;;24.40;94.50;;;;;;6124575;23;20738;-71
2021/09/14 13:50:38;;;;;;;7.07;6.37;;;24.40;94.40;;;;;;6124442;23;20525;-70
2021/09/14 13:53:07;;;;;;;6.17;5.40;;;24.60;94.30;;;;;;6124651;23;20429;-70